createdAt,value
2018-10-18T00:02:10.354Z,51.00
2018-10-18T00:04:38.851Z,50.90
2018-10-18T00:07:07.565Z,49.77
2018-10-18T00:09:36.032Z,61.20
2018-10-18T00:12:05.063Z,50.20
2018-10-18T00:14:33.957Z,49.93
2018-10-18T00:17:02.421Z,48.68
2018-10-18T00:19:30.922Z,57.73
2018-10-18T00:22:00.716Z,54.50
2018-10-18T00:24:29.849Z,46.93
2018-10-18T00:26:58.326Z,58.63
2018-10-18T00:29:26.847Z,51.00
2018-10-18T00:31:55.342Z,54.50
2018-10-18T00:34:23.807Z,55.67
2018-10-18T00:36:53.014Z,56.07
2018-10-18T00:39:21.480Z,53.66
2018-10-18T00:41:49.991Z,57.43
2018-10-18T00:44:18.588Z,51.90
2018-10-18T00:46:47.034Z,56.40
2018-10-18T00:54:17.462Z,51.07
2018-10-18T00:56:45.934Z,54.13
2018-10-18T00:59:15.511Z,59.45
2018-10-18T01:01:44.048Z,55.80
2018-10-18T01:04:12.506Z,58.70
2018-10-18T01:06:40.974Z,57.63
2018-10-18T01:09:10.644Z,57.38
2018-10-18T01:11:39.138Z,57.33
2018-10-18T01:14:07.738Z,58.50
2018-10-18T01:16:36.706Z,59.43
2018-10-18T01:19:06.509Z,56.87
2018-10-18T01:21:35.006Z,61.97
2018-10-18T01:24:03.587Z,69.45
2018-10-18T01:26:32.864Z,64.37
2018-10-18T01:29:01.426Z,66.22
2018-10-18T01:31:30.254Z,64.17
2018-10-18T01:33:58.715Z,60.97
2018-10-18T01:36:27.190Z,70.40
2018-10-18T01:38:55.734Z,63.40
2018-10-18T01:41:24.219Z,64.93
2018-10-18T01:43:52.811Z,64.43
2018-10-18T01:46:21.317Z,61.25
2018-10-18T01:48:49.840Z,60.73
2018-10-18T01:51:18.293Z,62.90
2018-10-18T01:53:48.040Z,63.20
2018-10-18T01:56:17.468Z,61.08
2018-10-18T01:58:45.911Z,58.70
2018-10-18T02:06:14.149Z,67.33
2018-10-18T02:08:42.594Z,60.93
2018-10-18T02:11:11.118Z,57.00
2018-10-18T02:13:39.698Z,59.67
2018-10-18T02:16:08.784Z,63.70
2018-10-18T02:18:37.275Z,56.40
2018-10-18T02:21:06.218Z,53.53
2018-10-18T02:23:35.109Z,57.33
2018-10-18T02:26:03.851Z,54.50
2018-10-18T02:28:33.316Z,52.53
2018-10-18T02:31:01.794Z,54.83
2018-10-18T02:33:30.276Z,52.43
2018-10-18T02:35:59.284Z,50.97
2018-10-18T02:38:27.734Z,52.80
2018-10-18T02:40:56.247Z,53.77
2018-10-18T02:43:24.746Z,54.67
2018-10-18T02:45:53.373Z,58.57
2018-10-18T02:48:21.928Z,53.30
2018-10-18T02:50:50.852Z,61.75
2018-10-18T02:53:19.409Z,57.67
2018-10-18T02:55:47.927Z,57.90
2018-10-18T02:58:17.422Z,61.24
2018-10-18T03:00:45.973Z,54.33
2018-10-18T03:08:14.426Z,66.43
2018-10-18T03:10:42.954Z,53.80
2018-10-18T03:13:11.459Z,53.13
2018-10-18T03:15:39.972Z,54.63
2018-10-18T03:18:08.560Z,51.90
2018-10-18T03:20:37.014Z,54.50
2018-10-18T03:23:05.647Z,51.48
2018-10-18T03:25:34.109Z,52.80
2018-10-18T03:28:02.577Z,55.47
2018-10-18T03:30:32.373Z,57.73
2018-10-18T03:33:00.869Z,49.33
2018-10-18T03:35:29.337Z,60.60
2018-10-18T03:37:57.841Z,53.43
2018-10-18T03:40:26.331Z,59.20
2018-10-18T03:42:54.829Z,54.90
2018-10-18T03:45:23.362Z,56.40
2018-10-18T03:47:51.960Z,53.40
2018-10-18T03:50:21.001Z,61.18
2018-10-18T03:52:50.047Z,60.30
2018-10-18T03:55:18.613Z,55.20
2018-10-18T03:57:47.134Z,64.30
2018-10-18T04:05:15.495Z,54.93
2018-10-18T04:07:44.075Z,57.00
2018-10-18T04:10:12.615Z,58.80
2018-10-18T04:12:41.403Z,60.40
2018-10-18T04:15:09.943Z,56.63
2018-10-18T04:17:38.453Z,56.80
2018-10-18T04:20:07.476Z,56.03
2018-10-18T04:22:36.048Z,59.70
2018-10-18T04:25:04.782Z,57.20
2018-10-18T04:27:33.407Z,79.03
2018-10-18T04:30:02.253Z,55.93
2018-10-18T04:32:31.357Z,58.40
2018-10-18T04:35:00.164Z,53.20
2018-10-18T04:37:28.917Z,53.70
2018-10-18T04:39:57.286Z,65.03
2018-10-18T04:42:25.802Z,57.27
2018-10-18T04:44:54.830Z,57.30
2018-10-18T04:47:23.484Z,55.47
2018-10-18T04:49:52.009Z,56.53
2018-10-18T04:52:20.558Z,60.90
2018-10-18T04:54:49.051Z,59.03
2018-10-18T04:57:19.045Z,60.07
2018-10-18T04:59:47.596Z,52.47
2018-10-18T05:07:10.192Z,58.53
2018-10-18T05:09:39.295Z,57.33
2018-10-18T05:12:08.413Z,63.80
2018-10-18T05:14:37.182Z,61.87
2018-10-18T05:17:06.429Z,62.97
2018-10-18T05:19:34.930Z,68.27
2018-10-18T05:22:03.557Z,68.90
2018-10-18T05:24:32.090Z,55.63
2018-10-18T05:27:00.574Z,62.33
2018-10-18T05:29:29.109Z,54.27
2018-10-18T05:31:57.603Z,60.83
2018-10-18T05:34:26.605Z,54.40
2018-10-18T05:36:56.797Z,60.53
2018-10-18T05:39:25.303Z,50.37
2018-10-18T05:41:53.842Z,57.53
2018-10-18T05:44:22.438Z,53.73
2018-10-18T05:46:51.131Z,61.40
2018-10-18T05:49:19.641Z,55.70
2018-10-18T05:51:48.114Z,59.50
2018-10-18T05:54:17.580Z,57.08
2018-10-18T05:56:46.094Z,65.27
2018-10-18T06:04:15.762Z,56.33
2018-10-18T06:06:44.256Z,58.03
2018-10-18T06:09:14.982Z,59.67
2018-10-18T06:11:43.477Z,50.38
2018-10-18T06:14:12.334Z,51.90
2018-10-18T06:16:40.807Z,48.17
2018-10-18T06:19:09.413Z,50.40
2018-10-18T06:21:38.183Z,50.03
2018-10-18T06:24:06.334Z,46.07
2018-10-18T06:26:35.485Z,49.58
2018-10-18T06:29:04.011Z,56.63
2018-10-18T06:31:32.678Z,54.98
2018-10-18T06:34:01.198Z,51.93
2018-10-18T06:36:29.926Z,49.30
2018-10-18T06:38:58.444Z,46.75
2018-10-18T06:41:27.181Z,54.93
2018-10-18T06:43:55.658Z,52.07
2018-10-18T06:46:24.161Z,43.13
2018-10-18T06:48:53.229Z,46.17
2018-10-18T06:51:21.713Z,48.63
2018-10-18T06:53:50.178Z,49.47
2018-10-18T06:56:18.702Z,63.57
2018-10-18T06:58:47.172Z,63.03
2018-10-18T07:06:11.901Z,53.60
2018-10-18T07:08:40.333Z,53.97
2018-10-18T07:11:08.952Z,65.57
2018-10-18T07:13:37.430Z,68.25
2018-10-18T07:16:06.841Z,54.03
2018-10-18T07:18:36.050Z,50.40
2018-10-18T07:21:06.757Z,82.00
2018-10-18T07:23:35.292Z,68.83
2018-10-18T07:26:03.802Z,59.87
2018-10-18T07:28:32.772Z,62.77
2018-10-18T07:31:02.214Z,51.27
2018-10-18T07:33:30.711Z,53.67
2018-10-18T07:35:59.264Z,73.40
2018-10-18T07:38:28.273Z,53.17
2018-10-18T07:40:56.772Z,59.37
2018-10-18T07:43:25.315Z,42.47
2018-10-18T07:45:53.919Z,44.63
2018-10-18T07:48:24.108Z,71.47
2018-10-18T07:50:53.219Z,41.50
2018-10-18T07:53:21.778Z,55.33
2018-10-18T07:55:50.274Z,45.03
2018-10-18T07:58:18.826Z,44.20
2018-10-18T08:00:47.500Z,49.87
2018-10-18T08:08:12.105Z,48.53
2018-10-18T08:10:40.653Z,53.87
2018-10-18T08:13:09.465Z,51.63
2018-10-18T08:15:38.026Z,49.83
2018-10-18T08:18:06.575Z,47.97
2018-10-18T08:20:35.091Z,48.30
2018-10-18T08:23:04.960Z,45.10
2018-10-18T08:25:33.463Z,44.37
2018-10-18T08:28:01.952Z,45.30
2018-10-18T08:30:30.690Z,48.97
2018-10-18T08:32:59.692Z,47.17
2018-10-18T08:35:28.217Z,52.63
2018-10-18T08:37:57.547Z,53.20
2018-10-18T08:40:26.529Z,56.90
2018-10-18T08:42:55.095Z,61.80
2018-10-18T08:45:23.872Z,54.60
2018-10-18T08:47:52.354Z,51.13
2018-10-18T08:50:20.890Z,56.68
2018-10-18T08:52:50.222Z,59.10
2018-10-18T08:55:18.759Z,54.50
2018-10-18T08:57:47.222Z,64.93
2018-10-18T09:05:11.306Z,55.70
2018-10-18T09:07:39.782Z,55.87
2018-10-18T09:10:08.884Z,52.50
2018-10-18T09:12:37.766Z,51.83
2018-10-18T09:15:08.172Z,54.30
2018-10-18T09:17:41.874Z,53.33
2018-10-18T09:20:10.401Z,57.17
2018-10-18T09:22:38.862Z,59.30
2018-10-18T09:25:08.514Z,54.27
2018-10-18T09:27:37.189Z,67.50
2018-10-18T09:30:07.330Z,68.13
2018-10-18T09:32:36.002Z,67.87
2018-10-18T09:35:04.960Z,65.07
2018-10-18T09:37:33.445Z,63.87
2018-10-18T09:40:01.977Z,70.50
2018-10-18T09:42:31.300Z,58.60
2018-10-18T09:44:59.954Z,65.23
2018-10-18T09:47:28.544Z,67.00
2018-10-18T09:49:57.018Z,59.67
2018-10-18T09:52:25.522Z,62.53
2018-10-18T09:54:54.846Z,74.50
2018-10-18T09:57:23.318Z,63.03
2018-10-18T09:59:51.815Z,61.13
2018-10-18T10:02:25.601Z,65.30
2018-10-18T10:04:54.098Z,68.10
2018-10-18T10:07:22.608Z,69.30
2018-10-18T10:09:51.136Z,75.83
2018-10-18T10:12:19.699Z,62.93
2018-10-18T10:14:48.274Z,65.40
2018-10-18T10:17:18.102Z,75.57
2018-10-18T10:19:46.593Z,72.37
2018-10-18T10:27:15.974Z,78.00
2018-10-18T10:29:44.489Z,80.47
2018-10-18T10:32:12.961Z,76.20
2018-10-18T10:34:41.670Z,82.93
2018-10-18T10:37:10.195Z,71.33
2018-10-18T10:39:38.631Z,78.97
2018-10-18T10:42:07.572Z,73.13
2018-10-18T10:44:36.233Z,79.30
2018-10-18T10:47:05.132Z,81.37
2018-10-18T10:49:33.678Z,78.00
2018-10-18T10:52:02.328Z,77.00
2018-10-18T10:54:30.770Z,87.00
2018-10-18T10:57:00.613Z,82.47
2018-10-18T10:59:29.162Z,79.67
2018-10-18T11:01:57.799Z,88.77
2018-10-18T11:04:26.357Z,89.67
2018-10-18T11:06:54.849Z,87.53
2018-10-18T11:09:23.422Z,92.27
2018-10-18T11:11:51.948Z,90.57
2018-10-18T11:14:20.410Z,91.25
2018-10-18T11:16:48.888Z,95.13
2018-10-18T11:19:17.888Z,90.55
2018-10-18T11:21:46.662Z,80.33
2018-10-18T11:29:15.402Z,78.13
2018-10-18T11:31:43.920Z,86.27
2018-10-18T11:34:12.461Z,85.30
2018-10-18T11:36:41.354Z,83.13
2018-10-18T11:39:10.334Z,84.50
2018-10-18T11:41:38.869Z,88.03
2018-10-18T11:44:07.461Z,75.57
2018-10-18T11:46:36.546Z,74.37
2018-10-18T11:49:05.250Z,78.17
2018-10-18T11:51:34.081Z,75.45
2018-10-18T11:54:02.578Z,68.85
2018-10-18T11:56:31.106Z,77.40
2018-10-18T11:59:00.623Z,70.73
2018-10-18T12:01:29.130Z,74.90
2018-10-18T12:03:57.683Z,72.77
2018-10-18T12:06:26.223Z,71.83
2018-10-18T12:08:55.150Z,72.73
2018-10-18T12:11:23.742Z,71.20
2018-10-18T12:13:52.352Z,67.30
2018-10-18T12:16:20.968Z,68.25
2018-10-18T12:18:49.803Z,65.60
2018-10-18T12:21:18.718Z,62.90
2018-10-18T12:23:47.306Z,62.23
2018-10-18T12:26:17.832Z,68.72
2018-10-18T12:28:46.356Z,57.47
2018-10-18T12:36:14.581Z,55.37
2018-10-18T12:38:43.202Z,56.00
2018-10-18T12:41:11.944Z,61.73
2018-10-18T12:43:41.357Z,62.70
2018-10-18T12:46:09.897Z,58.47
2018-10-18T12:48:39.054Z,56.63
2018-10-18T12:51:07.632Z,56.45
2018-10-18T12:53:36.186Z,60.57
2018-10-18T12:56:05.194Z,56.30
2018-10-18T12:58:34.833Z,54.80
2018-10-18T13:01:03.370Z,50.07
2018-10-18T13:03:32.591Z,57.10
2018-10-18T13:06:01.968Z,48.57
2018-10-18T13:08:31.025Z,64.10
2018-10-18T13:10:59.559Z,55.78
2018-10-18T13:13:29.256Z,57.93
2018-10-18T13:15:57.836Z,56.80
2018-10-18T13:18:26.360Z,60.00
2018-10-18T13:20:54.895Z,61.10
2018-10-18T13:23:23.443Z,51.00
2018-10-18T13:25:51.992Z,63.77
2018-10-18T13:28:21.211Z,60.95
2018-10-18T13:30:49.766Z,65.60
2018-10-18T13:33:19.049Z,55.00
2018-10-18T13:35:47.678Z,49.03
2018-10-18T13:38:17.986Z,50.63
2018-10-18T13:40:46.520Z,52.43
2018-10-18T13:48:14.663Z,56.43
2018-10-18T13:50:44.070Z,47.63
2018-10-18T13:53:12.900Z,49.83
2018-10-18T13:55:41.486Z,47.30
2018-10-18T13:58:12.146Z,57.43
2018-10-18T14:00:40.642Z,65.67
2018-10-18T14:03:09.291Z,58.47
2018-10-18T14:05:37.914Z,44.13
2018-10-18T14:08:06.701Z,49.60
2018-10-18T14:10:35.607Z,45.93
2018-10-18T14:13:04.206Z,55.97
2018-10-18T14:15:32.809Z,50.17
2018-10-18T14:18:01.737Z,52.63
2018-10-18T14:20:30.512Z,63.17
2018-10-18T14:22:59.069Z,53.87
2018-10-18T14:25:27.731Z,57.33
2018-10-18T14:27:56.682Z,50.03
2018-10-18T14:30:25.338Z,55.17
2018-10-18T14:32:54.082Z,46.97
2018-10-18T14:35:22.730Z,44.83
2018-10-18T14:37:51.302Z,43.87
2018-10-18T14:40:19.992Z,44.80
2018-10-18T14:42:49.347Z,48.23
2018-10-18T14:45:18.001Z,45.67
2018-10-18T14:47:46.700Z,44.43
2018-10-18T14:55:14.911Z,63.63
2018-10-18T14:57:47.472Z,51.10
2018-10-18T15:05:12.154Z,51.40
2018-10-18T15:07:41.584Z,58.00
2018-10-18T15:10:11.521Z,56.33
2018-10-18T15:12:42.393Z,63.10
2018-10-18T15:15:13.728Z,66.40
2018-10-18T15:17:43.694Z,52.13
2018-10-18T15:20:14.642Z,52.73
2018-10-18T15:22:43.562Z,65.47
2018-10-18T15:25:13.043Z,56.63
2018-10-18T15:27:42.215Z,54.90
2018-10-18T15:30:24.015Z,60.97
2018-10-18T15:32:53.843Z,56.63
2018-10-18T15:35:22.431Z,119.17
2018-10-18T15:37:50.985Z,75.80
2018-10-18T15:40:19.596Z,71.33
2018-10-18T15:42:48.178Z,59.43
2018-10-18T15:45:18.228Z,63.23
2018-10-18T15:47:46.825Z,59.00
2018-10-18T15:57:32.375Z,59.33
2018-10-18T16:00:00.922Z,69.03
2018-10-18T16:02:29.435Z,64.30
2018-10-18T16:04:58.026Z,70.00
2018-10-18T16:07:26.620Z,59.45
2018-10-18T16:09:55.355Z,67.60
2018-10-18T16:12:24.769Z,89.80
2018-10-18T16:14:53.301Z,88.93
2018-10-18T16:17:21.884Z,71.07
2018-10-18T16:19:50.501Z,79.27
2018-10-18T16:22:19.077Z,140.60
2018-10-18T16:24:47.595Z,73.90
2018-10-18T16:32:15.298Z,89.72
2018-10-18T16:34:43.813Z,75.37
2018-10-18T16:37:12.367Z,85.80
2018-10-18T16:39:41.450Z,83.80
2018-10-18T16:42:10.823Z,78.23
2018-10-18T16:44:39.621Z,81.72
2018-10-18T16:47:08.301Z,95.37
2018-10-18T16:49:36.819Z,69.93
2018-10-18T16:52:05.597Z,77.00
2018-10-18T16:54:34.379Z,86.50
2018-10-18T16:57:02.890Z,100.13
2018-10-18T16:59:32.608Z,89.40
2018-10-18T17:02:01.731Z,80.33
2018-10-18T17:04:32.078Z,88.63
2018-10-18T17:07:00.629Z,84.07
2018-10-18T17:09:29.239Z,101.27
2018-10-18T17:11:57.854Z,82.23
2018-10-18T17:14:26.512Z,84.75
2018-10-18T17:16:55.046Z,81.93
2018-10-18T17:19:23.526Z,84.60
2018-10-18T17:21:52.174Z,112.13
2018-10-18T17:24:20.733Z,77.00
2018-10-18T17:26:49.323Z,75.90
2018-10-18T17:29:17.870Z,88.03
2018-10-18T17:31:46.438Z,82.27
2018-10-18T17:37:52.858Z,71.53
2018-10-18T17:40:21.630Z,79.67
2018-10-18T17:42:50.804Z,78.47
2018-10-18T17:45:19.497Z,94.37
2018-10-18T17:47:48.130Z,88.90
2018-10-18T17:50:17.851Z,98.97
2018-10-18T17:52:46.618Z,84.40
2018-10-18T18:02:25.556Z,90.70
2018-10-18T18:04:55.578Z,92.53
2018-10-18T18:07:24.731Z,95.03
2018-10-18T18:09:53.843Z,92.17
2018-10-18T18:12:22.523Z,92.47
2018-10-18T18:14:52.287Z,85.27
2018-10-18T18:17:21.363Z,90.27
2018-10-18T18:19:50.452Z,100.30
2018-10-18T18:22:19.777Z,106.60
2018-10-18T18:24:48.522Z,116.40
2018-10-18T18:27:17.408Z,99.87
2018-10-18T18:29:46.004Z,115.77
2018-10-18T18:42:07.127Z,120.70
2018-10-18T18:44:36.741Z,132.90
2018-10-18T18:47:05.490Z,126.07
2018-10-18T18:49:34.200Z,157.17
2018-10-18T18:52:02.956Z,135.30
2018-10-18T18:54:31.526Z,137.82
2018-10-18T18:57:00.249Z,138.13
2018-10-18T18:59:28.836Z,160.30
2018-10-18T19:01:57.454Z,146.70
2018-10-18T19:04:26.417Z,127.00
2018-10-18T19:06:57.171Z,112.53
2018-10-18T19:09:25.736Z,114.03
2018-10-18T19:11:55.142Z,115.93
2018-10-18T19:14:23.696Z,106.67
2018-10-18T19:16:52.333Z,100.67
2018-10-18T19:19:21.890Z,114.77
2018-10-18T19:22:03.656Z,122.22
2018-10-18T19:24:32.772Z,98.90
2018-10-18T19:28:13.930Z,105.93
2018-10-18T19:30:45.251Z,91.90
2018-10-18T19:38:15.712Z,98.47
2018-10-18T19:40:46.191Z,93.10
2018-10-18T19:48:09.939Z,92.47
2018-10-18T19:56:51.456Z,106.73
2018-10-18T19:59:20.066Z,106.13
2018-10-18T20:01:49.987Z,95.60
2018-10-18T20:04:19.166Z,100.90
2018-10-18T20:06:49.707Z,94.00
2018-10-18T20:09:19.004Z,96.10
2018-10-18T20:11:47.591Z,99.67
2018-10-18T20:19:15.511Z,105.77
2018-10-18T20:21:44.164Z,94.63
2018-10-18T20:24:12.834Z,100.50
2018-10-18T20:26:43.191Z,110.88
2018-10-18T20:29:11.874Z,92.73
2018-10-18T20:31:40.420Z,94.70
2018-10-18T20:34:09.055Z,87.60
2018-10-18T20:36:37.872Z,96.05
2018-10-18T20:39:09.797Z,98.78
2018-10-18T20:41:38.399Z,100.03
2018-10-18T20:44:07.529Z,100.83
2018-10-18T20:46:36.343Z,95.73
2018-10-18T20:49:05.534Z,95.20
2018-10-18T20:51:34.058Z,92.00
2018-10-18T20:54:02.847Z,103.47
2018-10-18T20:56:31.767Z,104.45
2018-10-18T20:59:01.167Z,82.87
2018-10-18T21:01:30.395Z,86.95
2018-10-18T21:04:00.177Z,105.37
2018-10-18T21:06:29.901Z,85.57
2018-10-18T21:09:00.224Z,91.33
2018-10-18T21:11:29.952Z,95.62
2018-10-18T21:14:07.107Z,94.27
2018-10-18T21:16:35.883Z,86.00
2018-10-18T21:19:05.903Z,105.43
2018-10-18T21:21:36.892Z,85.06
2018-10-18T21:24:06.404Z,89.62
2018-10-18T21:26:35.098Z,102.22
2018-10-18T21:29:04.213Z,92.27
2018-10-18T21:31:32.960Z,87.33
2018-10-18T21:34:02.857Z,86.77
2018-10-18T21:36:32.094Z,95.87
2018-10-18T21:39:01.662Z,89.63
2018-10-18T21:41:30.384Z,93.20
2018-10-18T21:43:59.540Z,86.87
2018-10-18T21:46:28.208Z,90.23
2018-10-18T21:48:56.962Z,79.27
2018-10-18T21:51:25.978Z,83.65
2018-10-18T21:53:54.675Z,96.63
2018-10-18T21:56:24.033Z,99.97
2018-10-18T21:58:52.683Z,93.57
2018-10-18T22:01:21.399Z,96.35
2018-10-18T22:03:50.091Z,103.30
2018-10-18T22:06:19.319Z,90.57
2018-10-18T22:08:47.918Z,92.07
2018-10-18T22:11:18.039Z,88.27
2018-10-18T22:13:47.006Z,91.60
2018-10-18T22:16:17.503Z,85.42
2018-10-18T22:18:47.021Z,89.97
2018-10-18T22:21:17.512Z,97.22
2018-10-18T22:23:47.226Z,93.53
2018-10-18T22:31:11.402Z,96.20
2018-10-18T22:33:40.836Z,84.73
2018-10-18T22:36:09.420Z,80.17
2018-10-18T22:38:38.065Z,86.80
2018-10-18T22:41:07.561Z,81.77
2018-10-18T22:43:36.382Z,105.33
2018-10-18T22:46:05.390Z,81.73
2018-10-18T22:48:34.004Z,87.55
2018-10-18T22:51:02.615Z,94.63
2018-10-18T22:53:31.615Z,91.82
2018-10-18T22:56:01.394Z,87.00
2018-10-18T22:58:30.038Z,87.07
2018-10-18T23:00:58.700Z,90.85
2018-10-18T23:03:27.333Z,85.20
2018-10-18T23:05:55.921Z,86.40
2018-10-18T23:08:25.773Z,84.60
2018-10-18T23:10:55.213Z,87.33
2018-10-18T23:13:24.239Z,89.60
2018-10-18T23:15:54.034Z,88.03
2018-10-18T23:18:22.970Z,80.27
2018-10-18T23:20:51.555Z,93.82
2018-10-18T23:23:20.199Z,99.30
2018-10-18T23:25:50.013Z,100.60
2018-10-18T23:28:19.695Z,88.33
2018-10-18T23:30:48.381Z,83.30
2018-10-18T23:33:17.442Z,92.43
2018-10-18T23:35:46.162Z,90.53
2018-10-18T23:43:17.444Z,91.80
2018-10-18T23:45:45.932Z,82.50
2018-10-18T23:53:09.360Z,82.07
2018-10-18T23:55:37.829Z,78.37
2018-10-18T23:58:06.484Z,80.33
